createdAt,value
2022-09-30T00:00:57.210Z,23.25
2022-09-30T00:03:24.666Z,24.42
2022-09-30T00:06:08.629Z,21.42
2022-09-30T00:08:37.671Z,22.75
2022-09-30T00:11:08.639Z,22.23
2022-09-30T00:13:37.277Z,23.92
2022-09-30T00:16:05.234Z,23.20
2022-09-30T00:18:32.743Z,26.52
2022-09-30T00:21:00.024Z,21.83
2022-09-30T00:23:26.829Z,19.52
2022-09-30T00:25:59.957Z,18.25
2022-09-30T00:28:27.308Z,18.17
2022-09-30T00:30:55.093Z,19.73
2022-09-30T00:33:21.966Z,19.55
2022-09-30T00:35:48.831Z,18.45
2022-09-30T00:38:15.715Z,17.23
2022-09-30T00:40:43.233Z,16.02
2022-09-30T00:43:17.690Z,19.17
2022-09-30T00:45:53.213Z,19.98
2022-09-30T00:48:39.045Z,21.60
2022-09-30T00:51:07.704Z,18.63
2022-09-30T00:53:47.277Z,20.63
2022-09-30T00:56:21.831Z,21.83
2022-09-30T00:59:01.308Z,24.63
2022-09-30T01:01:28.299Z,21.05
2022-09-30T01:03:59.374Z,22.35
2022-09-30T01:06:26.663Z,20.75
2022-09-30T01:08:53.563Z,20.70
2022-09-30T01:11:20.433Z,23.05
2022-09-30T01:13:50.499Z,23.77
2022-09-30T01:16:41.945Z,23.20
2022-09-30T01:19:44.901Z,21.13
2022-09-30T01:22:49.225Z,23.65
2022-09-30T01:25:44.281Z,23.73
2022-09-30T01:28:53.499Z,19.38
2022-09-30T01:31:45.535Z,20.52
2022-09-30T01:34:30.703Z,18.73
2022-09-30T01:37:12.552Z,19.75
2022-09-30T01:40:12.727Z,19.63
2022-09-30T01:42:56.335Z,19.75
2022-09-30T01:45:31.939Z,19.55
2022-09-30T01:48:11.890Z,19.77
2022-09-30T01:50:52.760Z,18.42
2022-09-30T01:53:45.928Z,17.23
2022-09-30T01:56:24.838Z,19.85
2022-09-30T01:59:01.983Z,19.00
2022-09-30T02:01:39.690Z,18.98
2022-09-30T02:04:12.649Z,17.15
2022-09-30T02:06:44.521Z,20.20
2022-09-30T02:09:30.730Z,22.60
2022-09-30T02:12:03.079Z,18.92
2022-09-30T02:14:42.143Z,21.38
2022-09-30T02:17:19.830Z,18.05
2022-09-30T02:19:54.217Z,17.85
2022-09-30T02:22:44.630Z,20.50
2022-09-30T02:25:36.237Z,17.23
2022-09-30T02:28:08.418Z,20.10
2022-09-30T02:30:39.434Z,19.13
2022-09-30T02:33:11.651Z,21.98
2022-09-30T02:35:52.689Z,18.85
2022-09-30T02:38:22.926Z,18.70
2022-09-30T02:40:58.897Z,17.90
2022-09-30T02:43:27.484Z,16.38
2022-09-30T02:46:21.981Z,21.58
2022-09-30T02:49:03.844Z,17.05
2022-09-30T02:52:04.381Z,16.65
2022-09-30T02:54:31.127Z,18.27
2022-09-30T02:57:20.293Z,18.75
2022-09-30T02:59:52.207Z,16.25
2022-09-30T03:02:20.613Z,17.13
2022-09-30T03:04:49.677Z,13.88
2022-09-30T03:07:16.923Z,15.95
2022-09-30T03:09:43.822Z,13.18
2022-09-30T03:12:16.884Z,15.45
2022-09-30T03:15:03.571Z,13.50
2022-09-30T03:17:42.362Z,15.93
2022-09-30T03:20:22.116Z,13.98
2022-09-30T03:22:54.881Z,13.15
2022-09-30T03:25:57.062Z,12.68
2022-09-30T03:28:46.901Z,12.68
2022-09-30T03:31:32.282Z,12.07
2022-09-30T03:34:17.509Z,13.70
2022-09-30T03:37:04.278Z,15.10
2022-09-30T03:39:43.373Z,15.63
2022-09-30T03:42:23.820Z,16.38
2022-09-30T03:45:03.111Z,14.50
2022-09-30T03:47:34.684Z,12.48
2022-09-30T03:50:06.377Z,12.43
2022-09-30T03:52:34.935Z,12.45
2022-09-30T03:55:03.953Z,12.07
2022-09-30T03:57:31.255Z,13.25
2022-09-30T03:59:58.899Z,13.70
2022-09-30T04:02:26.741Z,13.65
2022-09-30T04:04:53.841Z,12.30
2022-09-30T04:07:20.680Z,14.05
2022-09-30T04:09:47.701Z,14.25
2022-09-30T04:12:14.577Z,14.77
2022-09-30T04:14:41.352Z,14.98
2022-09-30T04:17:08.144Z,15.55
2022-09-30T04:19:39.921Z,14.25
2022-09-30T04:22:07.922Z,16.33
2022-09-30T04:24:35.495Z,17.38
2022-09-30T04:27:03.324Z,17.38
2022-09-30T04:29:30.122Z,18.00
2022-09-30T04:31:57.399Z,16.60
2022-09-30T04:34:24.253Z,16.83
2022-09-30T04:36:51.094Z,14.60
2022-09-30T04:39:17.904Z,14.63
2022-09-30T04:41:44.802Z,15.30
2022-09-30T04:44:12.520Z,18.48
2022-09-30T04:46:39.414Z,21.02
2022-09-30T04:49:09.016Z,18.10
2022-09-30T04:51:36.828Z,20.98
2022-09-30T04:54:03.966Z,21.50
2022-09-30T04:56:30.930Z,19.52
2022-09-30T04:58:57.757Z,21.40
2022-09-30T05:01:24.783Z,24.55
2022-09-30T05:03:51.724Z,24.50
2022-09-30T05:06:18.789Z,24.20
2022-09-30T05:08:46.566Z,23.73
2022-09-30T05:11:20.028Z,29.23
2022-09-30T05:13:48.012Z,21.63
2022-09-30T05:16:16.237Z,24.17
2022-09-30T05:18:46.392Z,24.88
2022-09-30T05:21:15.205Z,21.92
2022-09-30T05:23:42.067Z,20.77
2022-09-30T05:26:12.173Z,22.40
2022-09-30T05:28:39.888Z,20.48
2022-09-30T05:31:06.882Z,19.00
2022-09-30T05:33:36.612Z,20.35
2022-09-30T05:36:09.935Z,19.02
2022-09-30T05:38:36.773Z,18.63
2022-09-30T05:41:08.560Z,18.33
2022-09-30T05:43:40.102Z,19.65
2022-09-30T05:46:07.778Z,17.60
2022-09-30T05:48:34.901Z,17.83
2022-09-30T05:51:02.457Z,17.05
2022-09-30T05:53:32.211Z,18.50
2022-09-30T05:55:59.653Z,13.80
2022-09-30T05:58:27.833Z,13.20
2022-09-30T06:00:55.023Z,15.02
2022-09-30T06:03:21.906Z,11.00
2022-09-30T06:05:49.224Z,13.13
2022-09-30T06:08:16.625Z,10.50
2022-09-30T06:10:44.667Z,11.70
2022-09-30T06:13:11.922Z,11.60
2022-09-30T06:15:39.784Z,9.93
2022-09-30T06:18:08.378Z,12.13
2022-09-30T06:20:36.660Z,10.97
2022-09-30T06:23:04.480Z,9.23
2022-09-30T06:25:32.208Z,10.20
2022-09-30T06:27:59.175Z,11.23
2022-09-30T06:30:27.945Z,8.43
2022-09-30T06:32:59.726Z,11.70
2022-09-30T06:35:27.847Z,8.50
2022-09-30T06:37:55.111Z,10.60
2022-09-30T06:40:22.255Z,15.20
2022-09-30T06:43:22.934Z,8.83
2022-09-30T06:46:07.061Z,11.33
2022-09-30T06:48:39.015Z,9.43
2022-09-30T06:51:10.710Z,11.30
2022-09-30T06:53:41.804Z,10.20
2022-09-30T06:56:11.207Z,13.60
2022-09-30T06:58:41.664Z,11.07
2022-09-30T07:01:23.811Z,10.37
2022-09-30T07:03:58.178Z,10.03
2022-09-30T07:06:28.099Z,15.80
2022-09-30T07:08:57.089Z,12.17
2022-09-30T07:11:37.884Z,10.13
2022-09-30T07:14:16.959Z,10.13
2022-09-30T07:17:02.917Z,10.50
2022-09-30T07:19:32.681Z,10.60
2022-09-30T07:22:51.304Z,10.83
2022-09-30T07:29:18.315Z,11.37
2022-09-30T07:31:46.735Z,13.93
2022-09-30T07:34:38.013Z,9.07
2022-09-30T07:37:06.471Z,9.97
2022-09-30T07:39:36.421Z,9.97
2022-09-30T07:42:08.904Z,8.50
2022-09-30T07:44:37.654Z,13.47
2022-09-30T07:47:06.571Z,6.10
2022-09-30T07:49:35.144Z,7.60
2022-09-30T07:52:15.317Z,5.70
2022-09-30T07:54:54.655Z,8.30
2022-09-30T07:57:49.338Z,8.00
2022-09-30T08:01:09.577Z,7.90
2022-09-30T08:03:47.355Z,7.57
2022-09-30T08:09:32.806Z,7.07
2022-09-30T08:12:06.336Z,6.40
2022-09-30T08:14:38.205Z,4.70
2022-09-30T08:17:07.852Z,7.13
2022-09-30T08:19:36.100Z,9.77
2022-09-30T08:22:05.937Z,7.60
2022-09-30T08:24:38.901Z,4.80
2022-09-30T08:27:15.343Z,9.20
2022-09-30T08:30:04.295Z,7.67
2022-09-30T08:32:34.429Z,6.20
2022-09-30T08:35:03.126Z,4.20
2022-09-30T08:37:33.292Z,4.43
2022-09-30T08:40:27.408Z,3.70
2022-09-30T08:43:33.128Z,2.93
2022-09-30T08:46:45.195Z,2.40
2022-09-30T08:49:43.327Z,4.40
2022-09-30T08:52:59.234Z,6.77
2022-09-30T08:55:36.440Z,5.20
2022-09-30T09:01:52.167Z,2.87
2022-09-30T09:08:00.058Z,1.90
2022-09-30T09:11:06.371Z,2.87
2022-09-30T09:14:38.583Z,2.07
2022-09-30T09:17:22.396Z,2.07
2022-09-30T09:20:18.686Z,2.20
2022-09-30T09:31:07.927Z,5.30
2022-09-30T09:38:02.922Z,2.93
2022-09-30T09:40:57.897Z,4.60
2022-09-30T09:44:48.477Z,2.27
2022-09-30T09:47:27.931Z,2.80
2022-09-30T09:53:24.305Z,4.37
2022-09-30T09:56:05.209Z,2.23
2022-09-30T09:58:34.760Z,2.27
2022-09-30T10:01:40.600Z,2.83
2022-09-30T10:04:29.476Z,1.87
2022-09-30T10:07:29.380Z,3.40
2022-09-30T10:10:51.634Z,3.40
2022-09-30T10:14:08.144Z,2.00
2022-09-30T10:17:16.381Z,1.90
2022-09-30T10:20:31.199Z,2.30
2022-09-30T10:34:27.849Z,2.63
2022-09-30T10:41:03.876Z,1.60
2022-09-30T10:43:48.511Z,1.50
2022-09-30T10:51:00.900Z,3.03
2022-09-30T10:53:33.729Z,2.00
2022-09-30T10:56:23.556Z,3.17
2022-09-30T11:02:44.220Z,2.20
2022-09-30T11:13:04.345Z,3.30
2022-09-30T11:15:47.382Z,4.00
2022-09-30T11:26:29.075Z,2.43
2022-09-30T11:29:12.282Z,3.43
2022-09-30T11:32:27.559Z,3.43
2022-09-30T11:35:25.318Z,4.50
2022-09-30T11:38:10.532Z,4.37
2022-09-30T11:41:15.211Z,3.60
2022-09-30T11:43:45.386Z,2.53
2022-09-30T11:46:49.977Z,3.77
2022-09-30T11:49:43.153Z,2.43
2022-09-30T11:52:50.631Z,3.93
2022-09-30T11:59:23.491Z,2.53
2022-09-30T12:03:34.887Z,2.53
2022-09-30T12:06:54.207Z,2.37
2022-09-30T12:10:04.367Z,2.70
2022-09-30T12:12:35.203Z,2.90
2022-09-30T12:15:16.804Z,2.27
2022-09-30T12:17:59.384Z,2.70
2022-09-30T12:20:43.710Z,2.73
2022-09-30T12:23:28.304Z,5.57
2022-09-30T12:26:00.686Z,3.83
2022-09-30T12:29:13.196Z,3.73
2022-09-30T12:32:06.329Z,5.33
2022-09-30T12:35:24.357Z,5.73
2022-09-30T12:38:25.489Z,6.07
2022-09-30T12:41:07.794Z,3.87
2022-09-30T12:44:22.972Z,2.50
2022-09-30T12:47:38.034Z,5.37
2022-09-30T12:50:57.884Z,3.40
2022-09-30T12:53:41.454Z,5.23
2022-09-30T12:56:13.784Z,5.00
2022-09-30T13:18:39.322Z,4.70
2022-09-30T13:21:09.778Z,5.33
2022-09-30T13:24:01.447Z,3.50
2022-09-30T13:27:01.434Z,5.60
2022-09-30T13:29:39.380Z,3.40
2022-09-30T15:42:39.561Z,2.80
2022-09-30T18:20:28.595Z,4.10
2022-09-30T18:23:54.023Z,4.90
2022-09-30T18:30:50.883Z,5.20
2022-09-30T18:53:34.507Z,5.07
2022-09-30T19:08:12.027Z,5.00
2022-09-30T19:11:36.191Z,4.47
2022-09-30T19:14:13.158Z,5.30
2022-09-30T19:16:42.071Z,6.20
2022-09-30T19:19:10.546Z,5.93
2022-09-30T19:21:38.940Z,5.87
2022-09-30T19:24:18.011Z,7.80
2022-09-30T19:26:46.839Z,7.33
2022-09-30T19:29:16.232Z,6.17
2022-09-30T19:31:45.436Z,8.13
2022-09-30T19:34:17.297Z,7.50
2022-09-30T19:36:51.635Z,8.13
2022-09-30T19:39:19.098Z,7.23
2022-09-30T19:41:47.301Z,8.57
2022-09-30T19:44:18.827Z,8.80
2022-09-30T19:46:49.279Z,8.60
2022-09-30T19:49:17.115Z,8.10
2022-09-30T19:51:50.242Z,7.70
2022-09-30T19:54:22.192Z,7.50
2022-09-30T19:56:51.242Z,9.13
2022-09-30T19:59:18.455Z,7.17
2022-09-30T20:01:46.337Z,9.57
2022-09-30T20:04:15.887Z,7.17
2022-09-30T20:10:36.453Z,10.50
2022-09-30T20:13:26.653Z,7.47
2022-09-30T20:19:54.132Z,8.67
2022-09-30T20:22:21.075Z,9.07
2022-09-30T20:24:48.111Z,7.77
2022-09-30T20:27:52.007Z,7.43
2022-09-30T20:30:20.374Z,8.83
2022-09-30T20:32:56.480Z,7.77
2022-09-30T20:35:51.265Z,9.13
2022-09-30T20:38:43.203Z,7.03
2022-09-30T20:51:14.326Z,9.27
2022-09-30T20:53:51.308Z,9.60
2022-09-30T20:56:26.286Z,10.23
2022-09-30T20:58:57.022Z,8.37
2022-09-30T21:04:07.663Z,13.77
2022-09-30T21:04:33.593Z,8.60
2022-09-30T21:07:01.000Z,10.80
2022-09-30T21:09:28.475Z,10.83
2022-09-30T21:12:12.165Z,12.33
2022-09-30T21:14:54.640Z,10.87
2022-09-30T21:20:33.314Z,11.47
2022-09-30T21:23:03.524Z,9.83
2022-09-30T21:25:32.188Z,9.87
2022-09-30T21:27:59.536Z,12.83
2022-09-30T21:30:27.357Z,15.23
2022-09-30T21:32:57.577Z,13.43
2022-09-30T21:35:25.083Z,13.57
2022-09-30T21:38:14.578Z,14.50
2022-09-30T21:40:41.511Z,13.30
2022-09-30T21:43:11.038Z,16.10
2022-09-30T21:45:44.506Z,13.17
2022-09-30T21:48:16.887Z,12.70
2022-09-30T21:50:43.912Z,13.63
2022-09-30T21:53:13.670Z,13.57
2022-09-30T21:55:40.775Z,14.93
2022-09-30T21:58:07.615Z,13.37
2022-09-30T22:00:34.446Z,13.93
2022-09-30T22:03:01.253Z,16.47
2022-09-30T22:05:28.033Z,14.57
2022-09-30T22:07:54.838Z,16.43
2022-09-30T22:10:21.602Z,14.50
2022-09-30T22:12:50.024Z,14.63
2022-09-30T22:15:17.348Z,16.37
2022-09-30T22:17:44.309Z,16.20
2022-09-30T22:20:13.177Z,15.20
2022-09-30T22:22:40.760Z,17.97
2022-09-30T22:25:08.062Z,15.87
2022-09-30T22:27:35.009Z,14.80
2022-09-30T22:30:01.809Z,14.40
2022-09-30T22:32:28.616Z,20.40
2022-09-30T22:35:14.293Z,14.55
2022-09-30T22:38:07.302Z,13.05
2022-09-30T22:40:34.805Z,15.53
2022-09-30T22:43:03.875Z,18.23
2022-09-30T22:45:30.693Z,17.00
2022-09-30T22:47:58.553Z,14.70
2022-09-30T22:50:28.701Z,13.57
2022-09-30T22:52:55.592Z,14.73
2022-09-30T22:55:22.470Z,14.27
2022-09-30T22:57:49.297Z,13.10
2022-09-30T23:00:16.130Z,13.70
2022-09-30T23:02:42.986Z,16.73
2022-09-30T23:05:09.841Z,11.93
2022-09-30T23:07:36.633Z,16.52
2022-09-30T23:10:03.869Z,13.00
2022-09-30T23:12:30.724Z,15.18
2022-09-30T23:14:57.941Z,16.48
2022-09-30T23:17:25.399Z,11.38
2022-09-30T23:19:52.190Z,12.60
2022-09-30T23:22:19.893Z,15.67
2022-09-30T23:24:46.662Z,11.57
2022-09-30T23:27:13.512Z,15.90
2022-09-30T23:29:40.272Z,11.93
2022-09-30T23:32:23.097Z,14.27
2022-09-30T23:34:49.937Z,12.87
2022-09-30T23:37:16.789Z,9.45
2022-09-30T23:39:44.107Z,9.68
2022-09-30T23:42:10.867Z,12.80
2022-09-30T23:44:37.669Z,16.17
2022-09-30T23:47:19.422Z,12.67
2022-09-30T23:49:46.484Z,10.07
2022-09-30T23:52:14.449Z,12.50
2022-09-30T23:54:42.259Z,12.68
2022-09-30T23:57:10.565Z,10.13
2022-09-30T23:59:38.611Z,12.20
